sensor_id;sensor_type;location;lat;lon;timestamp;pressure;altitude;pressure_sealevel;temperature
48854;BMP280;34673;52.808;17.856;2022-08-21T00:00:16;100003.22;;;23.82
48854;BMP280;34673;52.808;17.856;2022-08-21T00:02:50;100001.56;;;23.81
48854;BMP280;34673;52.808;17.856;2022-08-21T00:05:18;99998.16;;;23.79
48854;BMP280;34673;52.808;17.856;2022-08-21T00:07:46;100002.81;;;23.76
48854;BMP280;34673;52.808;17.856;2022-08-21T00:10:13;99993.31;;;23.73
48854;BMP280;34673;52.808;17.856;2022-08-21T00:12:42;99992.47;;;23.73
48854;BMP280;34673;52.808;17.856;2022-08-21T00:15:12;99992.66;;;23.70
48854;BMP280;34673;52.808;17.856;2022-08-21T00:17:39;99993.59;;;23.68
48854;BMP280;34673;52.808;17.856;2022-08-21T00:20:09;99990.31;;;23.65
48854;BMP280;34673;52.808;17.856;2022-08-21T00:22:36;99987.34;;;23.57
48854;BMP280;34673;52.808;17.856;2022-08-21T00:25:05;99983.53;;;23.61
48854;BMP280;34673;52.808;17.856;2022-08-21T00:27:33;99985.03;;;23.65
48854;BMP280;34673;52.808;17.856;2022-08-21T00:30:02;99989.56;;;23.63
48854;BMP280;34673;52.808;17.856;2022-08-21T00:32:29;99984.28;;;23.63
48854;BMP280;34673;52.808;17.856;2022-08-21T00:34:56;99992.63;;;23.57
48854;BMP280;34673;52.808;17.856;2022-08-21T00:37:23;99975.28;;;23.53
48854;BMP280;34673;52.808;17.856;2022-08-21T00:39:51;99991.34;;;23.50
48854;BMP280;34673;52.808;17.856;2022-08-21T00:42:18;99990.59;;;23.48
48854;BMP280;34673;52.808;17.856;2022-08-21T00:44:48;99988.19;;;23.44
48854;BMP280;34673;52.808;17.856;2022-08-21T00:47:17;99994.94;;;23.49
48854;BMP280;34673;52.808;17.856;2022-08-21T00:49:45;99982.91;;;23.44
48854;BMP280;34673;52.808;17.856;2022-08-21T00:52:17;99989.25;;;23.55
48854;BMP280;34673;52.808;17.856;2022-08-21T00:54:46;99994.53;;;23.55
48854;BMP280;34673;52.808;17.856;2022-08-21T00:57:17;99990.94;;;23.56
48854;BMP280;34673;52.808;17.856;2022-08-21T00:59:51;99970.22;;;23.50
48854;BMP280;34673;52.808;17.856;2022-08-21T01:02:18;99981.25;;;23.56
48854;BMP280;34673;52.808;17.856;2022-08-21T01:04:47;99978.47;;;23.58
48854;BMP280;34673;52.808;17.856;2022-08-21T01:07:15;99979.31;;;23.58
48854;BMP280;34673;52.808;17.856;2022-08-21T01:09:48;99977.00;;;23.54
48854;BMP280;34673;52.808;17.856;2022-08-21T01:12:16;99993.47;;;23.57
48854;BMP280;34673;52.808;17.856;2022-08-21T01:14:44;99985.66;;;23.56
48854;BMP280;34673;52.808;17.856;2022-08-21T01:17:14;99985.84;;;23.53
48854;BMP280;34673;52.808;17.856;2022-08-21T01:19:43;100001.31;;;23.59
48854;BMP280;34673;52.808;17.856;2022-08-21T01:22:10;100002.16;;;23.59
48854;BMP280;34673;52.808;17.856;2022-08-21T01:24:37;99997.72;;;23.60
48854;BMP280;34673;52.808;17.856;2022-08-21T01:27:04;99985.78;;;23.54
48854;BMP280;34673;52.808;17.856;2022-08-21T01:29:56;100001.09;;;23.62
48854;BMP280;34673;52.808;17.856;2022-08-21T01:32:25;99983.97;;;23.55
48854;BMP280;34673;52.808;17.856;2022-08-21T01:34:52;99994.84;;;23.63
48854;BMP280;34673;52.808;17.856;2022-08-21T01:37:21;99993.19;;;23.62
48854;BMP280;34673;52.808;17.856;2022-08-21T01:39:49;99989.78;;;23.60
48854;BMP280;34673;52.808;17.856;2022-08-21T01:42:16;99987.06;;;23.61
48854;BMP280;34673;52.808;17.856;2022-08-21T01:44:43;99979.97;;;23.62
48854;BMP280;34673;52.808;17.856;2022-08-21T01:47:13;99970.25;;;23.62
48854;BMP280;34673;52.808;17.856;2022-08-21T01:49:44;99969.41;;;23.62
48854;BMP280;34673;52.808;17.856;2022-08-21T01:52:11;99957.34;;;23.58
48854;BMP280;34673;52.808;17.856;2022-08-21T01:54:39;99964.34;;;23.59
48854;BMP280;34673;52.808;17.856;2022-08-21T01:57:07;99947.97;;;23.54
48854;BMP280;34673;52.808;17.856;2022-08-21T01:59:34;99943.63;;;23.53
48854;BMP280;34673;52.808;17.856;2022-08-21T02:02:03;99940.97;;;23.53
48854;BMP280;34673;52.808;17.856;2022-08-21T02:04:31;99938.13;;;23.56
48854;BMP280;34673;52.808;17.856;2022-08-21T02:07:00;99940.75;;;23.56
48854;BMP280;34673;52.808;17.856;2022-08-21T02:09:28;99941.94;;;23.52
48854;BMP280;34673;52.808;17.856;2022-08-21T02:11:55;99952.28;;;23.55
48854;BMP280;34673;52.808;17.856;2022-08-21T02:14:23;99937.50;;;23.52
48854;BMP280;34673;52.808;17.856;2022-08-21T02:16:58;99943.41;;;23.56
48854;BMP280;34673;52.808;17.856;2022-08-21T02:19:36;99935.47;;;23.56
48854;BMP280;34673;52.808;17.856;2022-08-21T02:22:09;99938.34;;;23.53
48854;BMP280;34673;52.808;17.856;2022-08-21T02:24:38;99938.56;;;23.50
48854;BMP280;34673;52.808;17.856;2022-08-21T02:27:22;99938.75;;;23.47
48854;BMP280;34673;52.808;17.856;2022-08-21T02:29:55;99928.63;;;23.40
48854;BMP280;34673;52.808;17.856;2022-08-21T02:32:24;99929.47;;;23.41
48854;BMP280;34673;52.808;17.856;2022-08-21T02:34:51;99932.53;;;23.35
48854;BMP280;34673;52.808;17.856;2022-08-21T02:37:19;99930.75;;;23.35
48854;BMP280;34673;52.808;17.856;2022-08-21T02:39:46;99921.22;;;23.33
48854;BMP280;34673;52.808;17.856;2022-08-21T02:42:13;99916.25;;;23.28
48854;BMP280;34673;52.808;17.856;2022-08-21T02:44:41;99909.72;;;23.21
48854;BMP280;34673;52.808;17.856;2022-08-21T02:47:08;99922.72;;;23.24
48854;BMP280;34673;52.808;17.856;2022-08-21T02:49:35;99922.38;;;23.16
48854;BMP280;34673;52.808;17.856;2022-08-21T02:52:02;99916.56;;;23.11
48854;BMP280;34673;52.808;17.856;2022-08-21T02:54:32;99920.34;;;23.07
48854;BMP280;34673;52.808;17.856;2022-08-21T02:56:59;99925.63;;;23.07
48854;BMP280;34673;52.808;17.856;2022-08-21T02:59:26;99920.56;;;23.04
48854;BMP280;34673;52.808;17.856;2022-08-21T03:01:53;99919.28;;;22.96
48854;BMP280;34673;52.808;17.856;2022-08-21T03:04:20;99912.91;;;22.86
48854;BMP280;34673;52.808;17.856;2022-08-21T03:06:48;99931.91;;;22.91
48854;BMP280;34673;52.808;17.856;2022-08-21T03:09:15;99926.50;;;22.80
48854;BMP280;34673;52.808;17.856;2022-08-21T03:11:43;99930.19;;;22.77
48854;BMP280;34673;52.808;17.856;2022-08-21T03:14:10;99930.66;;;22.70
48854;BMP280;34673;52.808;17.856;2022-08-21T03:16:37;99930.88;;;22.67
48854;BMP280;34673;52.808;17.856;2022-08-21T03:19:04;99940.06;;;22.74
48854;BMP280;34673;52.808;17.856;2022-08-21T03:21:32;99936.88;;;22.69
48854;BMP280;34673;52.808;17.856;2022-08-21T03:23:59;99940.66;;;22.65
48854;BMP280;34673;52.808;17.856;2022-08-21T03:26:30;99942.66;;;22.61
48854;BMP280;34673;52.808;17.856;2022-08-21T03:28:58;99946.34;;;22.59
48854;BMP280;34673;52.808;17.856;2022-08-21T03:31:25;99944.44;;;22.61
48854;BMP280;34673;52.808;17.856;2022-08-21T03:33:58;99938.31;;;22.60
48854;BMP280;34673;52.808;17.856;2022-08-21T03:36:25;99949.53;;;22.64
48854;BMP280;34673;52.808;17.856;2022-08-21T03:38:53;99944.97;;;22.66
48854;BMP280;34673;52.808;17.856;2022-08-21T03:41:21;99942.47;;;22.64
48854;BMP280;34673;52.808;17.856;2022-08-21T03:43:48;99945.75;;;22.68
48854;BMP280;34673;52.808;17.856;2022-08-21T03:46:15;99938.03;;;22.65
48854;BMP280;34673;52.808;17.856;2022-08-21T03:48:42;99941.16;;;22.57
48854;BMP280;34673;52.808;17.856;2022-08-21T03:51:09;99958.56;;;22.60
48854;BMP280;34673;52.808;17.856;2022-08-21T03:53:37;99959.69;;;22.55
48854;BMP280;34673;52.808;17.856;2022-08-21T03:56:04;99956.34;;;22.53
48854;BMP280;34673;52.808;17.856;2022-08-21T03:58:32;99958.78;;;22.56
48854;BMP280;34673;52.808;17.856;2022-08-21T04:01:01;99956.97;;;22.57
48854;BMP280;34673;52.808;17.856;2022-08-21T04:03:29;99955.38;;;22.54
48854;BMP280;34673;52.808;17.856;2022-08-21T04:05:56;99969.72;;;22.50
48854;BMP280;34673;52.808;17.856;2022-08-21T04:08:23;99967.38;;;22.46
48854;BMP280;34673;52.808;17.856;2022-08-21T04:10:54;99965.75;;;22.43
48854;BMP280;34673;52.808;17.856;2022-08-21T04:13:22;99964.56;;;22.34
48854;BMP280;34673;52.808;17.856;2022-08-21T04:15:50;99979.34;;;22.37
48854;BMP280;34673;52.808;17.856;2022-08-21T04:18:17;99984.63;;;22.37
48854;BMP280;34673;52.808;17.856;2022-08-21T04:20:46;99979.34;;;22.37
48854;BMP280;34673;52.808;17.856;2022-08-21T04:23:17;99979.53;;;22.34
48854;BMP280;34673;52.808;17.856;2022-08-21T04:25:50;99980.47;;;22.33
48854;BMP280;34673;52.808;17.856;2022-08-21T04:28:17;99979.69;;;22.31
48854;BMP280;34673;52.808;17.856;2022-08-21T04:30:45;99986.50;;;22.35
48854;BMP280;34673;52.808;17.856;2022-08-21T04:33:13;99995.34;;;22.34
48854;BMP280;34673;52.808;17.856;2022-08-21T04:35:40;99986.56;;;22.33
48854;BMP280;34673;52.808;17.856;2022-08-21T04:38:08;99992.81;;;22.32
48854;BMP280;34673;52.808;17.856;2022-08-21T04:40:36;99995.50;;;22.31
48854;BMP280;34673;52.808;17.856;2022-08-21T04:43:06;99991.13;;;22.31
48854;BMP280;34673;52.808;17.856;2022-08-21T04:45:43;99987.81;;;22.28
48854;BMP280;34673;52.808;17.856;2022-08-21T04:48:12;99993.06;;;22.28
48854;BMP280;34673;52.808;17.856;2022-08-21T04:50:45;99978.63;;;22.21
48854;BMP280;34673;52.808;17.856;2022-08-21T04:53:35;99989.72;;;22.26
48854;BMP280;34673;52.808;17.856;2022-08-21T04:56:06;99991.97;;;22.32
48854;BMP280;34673;52.808;17.856;2022-08-21T04:58:38;99983.88;;;22.21
48854;BMP280;34673;52.808;17.856;2022-08-21T05:01:09;100007.97;;;22.29
48854;BMP280;34673;52.808;17.856;2022-08-21T05:03:38;100011.63;;;22.26
48854;BMP280;34673;52.808;17.856;2022-08-21T05:06:10;100007.28;;;22.25
48854;BMP280;34673;52.808;17.856;2022-08-21T05:08:39;99986.31;;;22.09
48854;BMP280;34673;52.808;17.856;2022-08-21T05:11:06;100022.06;;;22.28
48854;BMP280;34673;52.808;17.856;2022-08-21T05:13:34;100022.06;;;22.28
48854;BMP280;34673;52.808;17.856;2022-08-21T05:16:02;100027.72;;;22.22
48854;BMP280;34673;52.808;17.856;2022-08-21T05:18:29;100035.53;;;22.23
48854;BMP280;34673;52.808;17.856;2022-08-21T05:20:56;100039.00;;;22.24
48854;BMP280;34673;52.808;17.856;2022-08-21T05:23:24;100035.22;;;22.28
48854;BMP280;34673;52.808;17.856;2022-08-21T05:25:53;100045.69;;;22.29
48854;BMP280;34673;52.808;17.856;2022-08-21T05:28:20;100029.25;;;22.26
48854;BMP280;34673;52.808;17.856;2022-08-21T05:30:47;100030.16;;;22.25
48854;BMP280;34673;52.808;17.856;2022-08-21T05:33:15;100042.94;;;22.31
48854;BMP280;34673;52.808;17.856;2022-08-21T05:35:42;100041.06;;;22.33
48854;BMP280;34673;52.808;17.856;2022-08-21T05:38:10;100036.00;;;22.30
48854;BMP280;34673;52.808;17.856;2022-08-21T05:40:44;100039.78;;;22.26
48854;BMP280;34673;52.808;17.856;2022-08-21T05:43:12;100031.31;;;22.21
48854;BMP280;34673;52.808;17.856;2022-08-21T05:45:39;100035.03;;;22.17
48854;BMP280;34673;52.808;17.856;2022-08-21T05:48:21;100037.09;;;22.11
48854;BMP280;34673;52.808;17.856;2022-08-21T05:50:50;100033.72;;;22.09
48854;BMP280;34673;52.808;17.856;2022-08-21T05:53:20;100030.31;;;22.07
48854;BMP280;34673;52.808;17.856;2022-08-21T05:55:49;100024.31;;;22.05
48854;BMP280;34673;52.808;17.856;2022-08-21T05:58:21;100032.00;;;22.08
48854;BMP280;34673;52.808;17.856;2022-08-21T06:00:50;100033.88;;;22.06
48854;BMP280;34673;52.808;17.856;2022-08-21T06:03:26;100030.31;;;22.07
48854;BMP280;34673;52.808;17.856;2022-08-21T06:05:54;100023.53;;;22.03
48854;BMP280;34673;52.808;17.856;2022-08-21T06:08:23;100025.06;;;22.07
48854;BMP280;34673;52.808;17.856;2022-08-21T06:10:52;100014.41;;;22.09
48854;BMP280;34673;52.808;17.856;2022-08-21T06:13:20;100008.50;;;22.05
48854;BMP280;34673;52.808;17.856;2022-08-21T06:15:49;100004.00;;;22.07
48854;BMP280;34673;52.808;17.856;2022-08-21T06:18:16;99986.84;;;22.00
48854;BMP280;34673;52.808;17.856;2022-08-21T06:20:44;99991.94;;;22.03
48854;BMP280;34673;52.808;17.856;2022-08-21T06:23:11;99988.72;;;21.98
48854;BMP280;34673;52.808;17.856;2022-08-21T06:25:38;99996.28;;;22.04
48854;BMP280;34673;52.808;17.856;2022-08-21T06:28:09;99998.91;;;22.04
48854;BMP280;34673;52.808;17.856;2022-08-21T06:30:38;99999.75;;;22.05
48854;BMP280;34673;52.808;17.856;2022-08-21T06:33:07;99981.78;;;21.97
48854;BMP280;34673;52.808;17.856;2022-08-21T06:35:35;99988.47;;;22.03
48854;BMP280;34673;52.808;17.856;2022-08-21T06:38:05;99974.25;;;22.05
48854;BMP280;34673;52.808;17.856;2022-08-21T06:40:33;99961.84;;;22.07
48854;BMP280;34673;52.808;17.856;2022-08-21T06:43:10;99944.53;;;22.03
48854;BMP280;34673;52.808;17.856;2022-08-21T06:45:41;99939.25;;;22.03
48854;BMP280;34673;52.808;17.856;2022-08-21T06:48:08;99969.28;;;22.15
48854;BMP280;34673;52.808;17.856;2022-08-21T06:50:36;99980.50;;;22.19
48854;BMP280;34673;52.808;17.856;2022-08-21T06:53:11;99986.84;;;22.14
48854;BMP280;34673;52.808;17.856;2022-08-21T06:55:43;99985.91;;;22.16
48854;BMP280;34673;52.808;17.856;2022-08-21T06:58:13;99998.13;;;22.17
48854;BMP280;34673;52.808;17.856;2022-08-21T07:00:44;99995.63;;;22.15
48854;BMP280;34673;52.808;17.856;2022-08-21T07:03:27;99996.47;;;22.16
48854;BMP280;34673;52.808;17.856;2022-08-21T07:05:55;100007.19;;;22.12
48854;BMP280;34673;52.808;17.856;2022-08-21T07:08:25;99998.53;;;22.10
48854;BMP280;34673;52.808;17.856;2022-08-21T07:10:53;100006.44;;;22.10
48854;BMP280;34673;52.808;17.856;2022-08-21T07:13:21;100003.22;;;22.05
48854;BMP280;34673;52.808;17.856;2022-08-21T07:15:49;100000.97;;;21.99
48854;BMP280;34673;52.808;17.856;2022-08-21T07:18:16;100011.69;;;21.96
48854;BMP280;34673;52.808;17.856;2022-08-21T07:20:44;100012.63;;;21.95
48854;BMP280;34673;52.808;17.856;2022-08-21T07:23:20;100008.13;;;21.97
48854;BMP280;34673;52.808;17.856;2022-08-21T07:25:49;100002.84;;;21.97
48854;BMP280;34673;52.808;17.856;2022-08-21T07:28:17;100010.84;;;21.96
48854;BMP280;34673;52.808;17.856;2022-08-21T07:30:45;100005.75;;;21.92
48854;BMP280;34673;52.808;17.856;2022-08-21T07:33:12;100006.78;;;21.90
48854;BMP280;34673;52.808;17.856;2022-08-21T07:35:40;100011.03;;;21.92
48854;BMP280;34673;52.808;17.856;2022-08-21T07:38:07;100006.06;;;21.88
48854;BMP280;34673;52.808;17.856;2022-08-21T07:40:34;100003.41;;;21.88
48854;BMP280;34673;52.808;17.856;2022-08-21T07:43:02;100017.31;;;21.90
48854;BMP280;34673;52.808;17.856;2022-08-21T07:45:29;100001.81;;;21.85
48854;BMP280;34673;52.808;17.856;2022-08-21T07:47:56;100020.91;;;21.89
48854;BMP280;34673;52.808;17.856;2022-08-21T07:50:24;100018.09;;;21.92
48854;BMP280;34673;52.808;17.856;2022-08-21T07:52:52;100019.22;;;21.88
48854;BMP280;34673;52.808;17.856;2022-08-21T07:55:20;100012.06;;;21.90
48854;BMP280;34673;52.808;17.856;2022-08-21T07:57:48;100020.91;;;21.89
48854;BMP280;34673;52.808;17.856;2022-08-21T08:00:20;100032.19;;;21.91
48854;BMP280;34673;52.808;17.856;2022-08-21T08:02:50;100023.81;;;21.84
48854;BMP280;34673;52.808;17.856;2022-08-21T08:05:20;99997.84;;;21.78
48854;BMP280;34673;52.808;17.856;2022-08-21T08:07:48;100019.03;;;21.91
48854;BMP280;34673;52.808;17.856;2022-08-21T08:10:16;100022.41;;;21.93
48854;BMP280;34673;52.808;17.856;2022-08-21T08:12:45;100032.78;;;21.96
48854;BMP280;34673;52.808;17.856;2022-08-21T08:15:17;100029.38;;;21.94
48854;BMP280;34673;52.808;17.856;2022-08-21T08:17:45;100028.63;;;21.92
48854;BMP280;34673;52.808;17.856;2022-08-21T08:20:14;100033.13;;;21.90
48854;BMP280;34673;52.808;17.856;2022-08-21T08:22:42;100034.84;;;21.91
48854;BMP280;34673;52.808;17.856;2022-08-21T08:25:26;100033.13;;;21.90
48854;BMP280;34673;52.808;17.856;2022-08-21T08:28:04;100039.34;;;21.89
48854;BMP280;34673;52.808;17.856;2022-08-21T08:30:45;100041.97;;;21.89
48854;BMP280;34673;52.808;17.856;2022-08-21T08:33:14;100038.38;;;21.90
48854;BMP280;34673;52.808;17.856;2022-08-21T08:35:45;100036.13;;;21.98
48854;BMP280;34673;52.808;17.856;2022-08-21T08:38:14;100037.47;;;21.91
48854;BMP280;34673;52.808;17.856;2022-08-21T08:41:13;100034.44;;;21.83
48854;BMP280;34673;52.808;17.856;2022-08-21T08:43:50;100041.97;;;21.89
48854;BMP280;34673;52.808;17.856;2022-08-21T08:46:41;100048.56;;;21.96
48854;BMP280;34673;52.808;17.856;2022-08-21T08:51:51;100047.44;;;22.00
48854;BMP280;34673;52.808;17.856;2022-08-21T08:54:31;100041.25;;;22.01
48854;BMP280;34673;52.808;17.856;2022-08-21T08:57:02;100039.34;;;22.03
48854;BMP280;34673;52.808;17.856;2022-08-21T08:59:49;100049.00;;;22.19
48854;BMP280;34673;52.808;17.856;2022-08-21T09:02:19;100042.31;;;22.27
48854;BMP280;34673;52.808;17.856;2022-08-21T09:04:49;100045.59;;;22.31
48854;BMP280;34673;52.808;17.856;2022-08-21T09:29:22;100055.44;;;22.13
48854;BMP280;34673;52.808;17.856;2022-08-21T09:31:51;100050.91;;;22.01
48854;BMP280;34673;52.808;17.856;2022-08-21T09:34:28;100057.06;;;22.01
48854;BMP280;34673;52.808;17.856;2022-08-21T09:36:56;100052.25;;;21.94
48854;BMP280;34673;52.808;17.856;2022-08-21T09:39:28;100029.53;;;21.77
48854;BMP280;34673;52.808;17.856;2022-08-21T09:41:57;100052.88;;;21.83
48854;BMP280;34673;52.808;17.856;2022-08-21T09:44:31;100054.94;;;21.78
48854;BMP280;34673;52.808;17.856;2022-08-21T09:46:58;100051.84;;;21.85
48854;BMP280;34673;52.808;17.856;2022-08-21T09:49:28;100058.53;;;21.91
48854;BMP280;34673;52.808;17.856;2022-08-21T09:51:56;100058.22;;;21.96
48854;BMP280;34673;52.808;17.856;2022-08-21T09:54:29;100055.53;;;21.97
48854;BMP280;34673;52.808;17.856;2022-08-21T09:57:45;100057.97;;;22.00
48854;BMP280;34673;52.808;17.856;2022-08-21T10:00:20;100057.06;;;22.01
48854;BMP280;34673;52.808;17.856;2022-08-21T10:02:51;100059.94;;;21.97
48854;BMP280;34673;52.808;17.856;2022-08-21T10:05:24;100069.66;;;21.96
48854;BMP280;34673;52.808;17.856;2022-08-21T10:07:52;100067.00;;;21.96
48854;BMP280;34673;52.808;17.856;2022-08-21T10:10:22;100064.53;;;21.93
48854;BMP280;34673;52.808;17.856;2022-08-21T10:21:26;100087.13;;;21.97
48854;BMP280;34673;52.808;17.856;2022-08-21T10:27:11;100090.88;;;21.93
48854;BMP280;34673;52.808;17.856;2022-08-21T10:32:34;100092.78;;;21.91
48854;BMP280;34673;52.808;17.856;2022-08-21T10:38:05;100084.28;;;21.86
48854;BMP280;34673;52.808;17.856;2022-08-21T10:46:37;100095.75;;;21.85
48854;BMP280;34673;52.808;17.856;2022-08-21T10:54:37;100097.97;;;21.77
48854;BMP280;34673;52.808;17.856;2022-08-21T10:57:27;100098.09;;;21.75
48854;BMP280;34673;52.808;17.856;2022-08-21T11:00:13;100103.63;;;21.71
48854;BMP280;34673;52.808;17.856;2022-08-21T11:05:41;100112.19;;;21.74
48854;BMP280;34673;52.808;17.856;2022-08-21T11:08:39;100101.16;;;21.67
48854;BMP280;34673;52.808;17.856;2022-08-21T11:11:25;100110.00;;;21.66
48854;BMP280;34673;52.808;17.856;2022-08-21T11:17:11;100094.94;;;21.68
48854;BMP280;34673;52.808;17.856;2022-08-21T11:19:48;100097.75;;;21.65
48854;BMP280;34673;52.808;17.856;2022-08-21T11:24:50;100090.06;;;21.62
48854;BMP280;34673;52.808;17.856;2022-08-21T11:30:01;100088.53;;;21.58
48854;BMP280;34673;52.808;17.856;2022-08-21T11:43:12;100062.34;;;21.41
48854;BMP280;34673;52.808;17.856;2022-08-21T11:45:49;100055.41;;;21.40
48854;BMP280;34673;52.808;17.856;2022-08-21T11:51:12;100054.38;;;21.27
48854;BMP280;34673;52.808;17.856;2022-08-21T11:54:03;100050.19;;;21.22
48854;BMP280;34673;52.808;17.856;2022-08-21T11:59:05;100061.69;;;21.21
48854;BMP280;34673;52.808;17.856;2022-08-21T12:01:37;100068.63;;;21.22
48854;BMP280;34673;52.808;17.856;2022-08-21T12:04:32;100066.75;;;21.24
48854;BMP280;34673;52.808;17.856;2022-08-21T12:07:14;100070.50;;;21.20
48854;BMP280;34673;52.808;17.856;2022-08-21T12:09:53;100068.06;;;21.17
48854;BMP280;34673;52.808;17.856;2022-08-21T12:12:36;100070.84;;;21.14
48854;BMP280;34673;52.808;17.856;2022-08-21T12:15:13;100070.69;;;21.17
48854;BMP280;34673;52.808;17.856;2022-08-21T12:18:02;100075.94;;;21.17
48854;BMP280;34673;52.808;17.856;2022-08-21T12:25:43;100075.59;;;21.23
48854;BMP280;34673;52.808;17.856;2022-08-21T12:28:14;100072.84;;;21.25
48854;BMP280;34673;52.808;17.856;2022-08-21T12:30:45;100072.72;;;21.28
48854;BMP280;34673;52.808;17.856;2022-08-21T12:35:47;100063.34;;;21.22
48854;BMP280;34673;52.808;17.856;2022-08-21T12:38:27;100081.72;;;21.40
48854;BMP280;34673;52.808;17.856;2022-08-21T12:40:59;100088.00;;;21.37
48854;BMP280;34673;52.808;17.856;2022-08-21T12:43:29;100087.13;;;21.37
48854;BMP280;34673;52.808;17.856;2022-08-21T12:45:58;100099.19;;;21.41
48854;BMP280;34673;52.808;17.856;2022-08-21T12:48:41;100088.47;;;21.44
48854;BMP280;34673;52.808;17.856;2022-08-21T12:51:11;100095.09;;;21.51
48854;BMP280;34673;52.808;17.856;2022-08-21T12:53:49;100094.53;;;21.60
48854;BMP280;34673;52.808;17.856;2022-08-21T12:56:19;100088.09;;;21.66
48854;BMP280;34673;52.808;17.856;2022-08-21T12:59:02;100088.94;;;21.66
48854;BMP280;34673;52.808;17.856;2022-08-21T13:01:34;100085.56;;;21.64
48854;BMP280;34673;52.808;17.856;2022-08-21T13:04:11;100103.22;;;21.62
48854;BMP280;34673;52.808;17.856;2022-08-21T13:06:43;100091.75;;;21.63
48854;BMP280;34673;52.808;17.856;2022-08-21T13:09:15;100091.47;;;21.68
48854;BMP280;34673;52.808;17.856;2022-08-21T13:11:45;100089.59;;;21.70
48854;BMP280;34673;52.808;17.856;2022-08-21T13:14:31;100097.44;;;21.72
48854;BMP280;34673;52.808;17.856;2022-08-21T13:17:05;100097.06;;;21.78
48854;BMP280;34673;52.808;17.856;2022-08-21T13:19:33;100095.84;;;21.83
48854;BMP280;34673;52.808;17.856;2022-08-21T13:22:02;100099.91;;;21.89
48854;BMP280;34673;52.808;17.856;2022-08-21T13:24:50;100092.38;;;21.83
48854;BMP280;34673;52.808;17.856;2022-08-21T13:27:22;100089.94;;;21.80
48854;BMP280;34673;52.808;17.856;2022-08-21T13:30:02;100091.97;;;21.75
48854;BMP280;34673;52.808;17.856;2022-08-21T13:32:30;100098.94;;;21.76
48854;BMP280;34673;52.808;17.856;2022-08-21T13:35:08;100097.75;;;21.65
48854;BMP280;34673;52.808;17.856;2022-08-21T13:37:38;100105.25;;;21.57
48854;BMP280;34673;52.808;17.856;2022-08-21T13:40:11;100109.19;;;21.50
48854;BMP280;34673;52.808;17.856;2022-08-21T13:42:43;100123.28;;;21.49
48854;BMP280;34673;52.808;17.856;2022-08-21T13:45:18;100117.09;;;21.50
48854;BMP280;34673;52.808;17.856;2022-08-21T13:47:48;100117.16;;;21.49
48854;BMP280;34673;52.808;17.856;2022-08-21T13:50:18;100114.47;;;21.50
48854;BMP280;34673;52.808;17.856;2022-08-21T13:52:59;100119.72;;;21.50
48854;BMP280;34673;52.808;17.856;2022-08-21T13:55:37;100119.91;;;21.47
48854;BMP280;34673;52.808;17.856;2022-08-21T13:58:05;100136.53;;;21.48
48854;BMP280;34673;52.808;17.856;2022-08-21T14:00:45;100120.06;;;21.44
48854;BMP280;34673;52.808;17.856;2022-08-21T14:03:36;100132.28;;;21.45
48854;BMP280;34673;52.808;17.856;2022-08-21T14:06:16;100127.22;;;21.42
48854;BMP280;34673;52.808;17.856;2022-08-21T14:09:00;100129.66;;;21.45
48854;BMP280;34673;52.808;17.856;2022-08-21T14:11:32;100123.44;;;21.46
48854;BMP280;34673;52.808;17.856;2022-08-21T14:14:04;100123.97;;;21.37
48854;BMP280;34673;52.808;17.856;2022-08-21T14:16:47;100124.13;;;21.34
48854;BMP280;34673;52.808;17.856;2022-08-21T14:19:26;100132.94;;;21.33
48854;BMP280;34673;52.808;17.856;2022-08-21T14:21:53;100140.94;;;21.31
48854;BMP280;34673;52.808;17.856;2022-08-21T14:27:23;100143.81;;;21.27
48854;BMP280;34673;52.808;17.856;2022-08-21T14:29:43;100145.69;;;21.24
48854;BMP280;34673;52.808;17.856;2022-08-21T14:32:19;100147.47;;;21.24
48854;BMP280;34673;52.808;17.856;2022-08-21T14:34:51;100152.06;;;21.20
48854;BMP280;34673;52.808;17.856;2022-08-21T14:37:21;100131.09;;;21.03
48854;BMP280;34673;52.808;17.856;2022-08-21T14:39:50;100155.72;;;21.18
48854;BMP280;34673;52.808;17.856;2022-08-21T14:42:18;100153.16;;;21.16
48854;BMP280;34673;52.808;17.856;2022-08-21T14:44:45;100160.13;;;21.17
48854;BMP280;34673;52.808;17.856;2022-08-21T14:47:13;100147.88;;;21.16
48854;BMP280;34673;52.808;17.856;2022-08-21T14:49:40;100153.16;;;21.16
48854;BMP280;34673;52.808;17.856;2022-08-21T14:52:07;100142.13;;;21.10
48854;BMP280;34673;52.808;17.856;2022-08-21T14:54:34;100147.28;;;21.11
48854;BMP280;34673;52.808;17.856;2022-08-21T14:57:06;100156.13;;;21.10
48854;BMP280;34673;52.808;17.856;2022-08-21T14:59:36;100155.63;;;21.03
48854;BMP280;34673;52.808;17.856;2022-08-21T15:02:05;100143.63;;;20.98
48854;BMP280;34673;52.808;17.856;2022-08-21T15:04:35;100119.09;;;20.81
48854;BMP280;34673;52.808;17.856;2022-08-21T15:07:02;100153.41;;;20.96
48854;BMP280;34673;52.808;17.856;2022-08-21T15:09:30;100156.50;;;20.87
48854;BMP280;34673;52.808;17.856;2022-08-21T15:11:58;100161.59;;;20.90
48854;BMP280;34673;52.808;17.856;2022-08-21T15:14:29;100164.41;;;20.87
48854;BMP280;34673;52.808;17.856;2022-08-21T15:16:57;100159.41;;;20.82
48854;BMP280;34673;52.808;17.856;2022-08-21T15:19:25;100155.00;;;20.83
48854;BMP280;34673;52.808;17.856;2022-08-21T15:21:53;100161.78;;;20.87
48854;BMP280;34673;52.808;17.856;2022-08-21T15:24:20;100162.53;;;20.89
48854;BMP280;34673;52.808;17.856;2022-08-21T15:26:47;100166.72;;;20.93
48854;BMP280;34673;52.808;17.856;2022-08-21T15:29:15;100152.81;;;20.91
48854;BMP280;34673;52.808;17.856;2022-08-21T15:31:58;100159.59;;;20.95
48854;BMP280;34673;52.808;17.856;2022-08-21T15:34:28;100159.41;;;20.98
48854;BMP280;34673;52.808;17.856;2022-08-21T15:36:56;100162.97;;;20.97
48854;BMP280;34673;52.808;17.856;2022-08-21T15:39:25;100160.47;;;20.95
48854;BMP280;34673;52.808;17.856;2022-08-21T15:41:58;100161.28;;;20.96